sensor_id;sensor_type;location;lat;lon;timestamp;temperature;humidity
68746;SHT31;66104;45.456;11.064;2023-04-01T00:01:02;11.64;70.97
68746;SHT31;66104;45.456;11.064;2023-04-01T00:03:40;11.70;70.77
68746;SHT31;66104;45.456;11.064;2023-04-01T00:06:19;11.76;70.75
68746;SHT31;66104;45.456;11.064;2023-04-01T00:08:56;11.76;70.58
68746;SHT31;66104;45.456;11.064;2023-04-01T00:11:34;11.74;70.47
68746;SHT31;66104;45.456;11.064;2023-04-01T00:14:11;11.71;70.43
68746;SHT31;66104;45.456;11.064;2023-04-01T00:16:48;11.70;70.37
68746;SHT31;66104;45.456;11.064;2023-04-01T00:19:26;11.70;70.37
68746;SHT31;66104;45.456;11.064;2023-04-01T00:22:03;11.70;69.88
68746;SHT31;66104;45.456;11.064;2023-04-01T00:24:40;11.64;69.86
68746;SHT31;66104;45.456;11.064;2023-04-01T00:27:17;11.60;69.83
68746;SHT31;66104;45.456;11.064;2023-04-01T00:29:54;11.54;69.83
68746;SHT31;66104;45.456;11.064;2023-04-01T00:32:30;11.49;69.81
68746;SHT31;66104;45.456;11.064;2023-04-01T00:35:07;11.41;69.89
68746;SHT31;66104;45.456;11.064;2023-04-01T00:37:45;11.32;69.96
68746;SHT31;66104;45.456;11.064;2023-04-01T00:40:26;11.31;69.80
68746;SHT31;66104;45.456;11.064;2023-04-01T00:43:10;11.32;69.80
68746;SHT31;66104;45.456;11.064;2023-04-01T00:45:49;11.32;69.65
68746;SHT31;66104;45.456;11.064;2023-04-01T00:48:29;11.28;69.54
68746;SHT31;66104;45.456;11.064;2023-04-01T00:51:08;11.24;69.65
68746;SHT31;66104;45.456;11.064;2023-04-01T00:53:49;11.24;69.69
68746;SHT31;66104;45.456;11.064;2023-04-01T00:56:32;11.26;69.55
68746;SHT31;66104;45.456;11.064;2023-04-01T00:59:14;11.24;69.51
68746;SHT31;66104;45.456;11.064;2023-04-01T01:01:56;11.26;69.53
68746;SHT31;66104;45.456;11.064;2023-04-01T01:04:34;11.27;69.51
68746;SHT31;66104;45.456;11.064;2023-04-01T01:07:14;11.27;69.43
68746;SHT31;66104;45.456;11.064;2023-04-01T01:10:06;11.24;69.40
68746;SHT31;66104;45.456;11.064;2023-04-01T01:12:54;11.18;69.47
68746;SHT31;66104;45.456;11.064;2023-04-01T01:15:44;11.15;69.36
68746;SHT31;66104;45.456;11.064;2023-04-01T01:18:30;11.14;69.34
68746;SHT31;66104;45.456;11.064;2023-04-01T01:21:24;11.14;69.19
68746;SHT31;66104;45.456;11.064;2023-04-01T01:24:32;11.08;69.00
68746;SHT31;66104;45.456;11.064;2023-04-01T01:27:30;10.97;69.17
68746;SHT31;66104;45.456;11.064;2023-04-01T01:30:19;10.90;69.46
68746;SHT31;66104;45.456;11.064;2023-04-01T01:33:20;10.86;69.39
68746;SHT31;66104;45.456;11.064;2023-04-01T01:36:19;10.82;69.28
68746;SHT31;66104;45.456;11.064;2023-04-01T01:39:05;10.77;69.32
68746;SHT31;66104;45.456;11.064;2023-04-01T01:41:44;10.77;69.39
68746;SHT31;66104;45.456;11.064;2023-04-01T01:44:23;10.78;69.36
68746;SHT31;66104;45.456;11.064;2023-04-01T01:47:03;10.81;69.27
68746;SHT31;66104;45.456;11.064;2023-04-01T01:49:40;10.79;69.23
68746;SHT31;66104;45.456;11.064;2023-04-01T01:52:18;10.79;69.29
68746;SHT31;66104;45.456;11.064;2023-04-01T01:54:58;10.79;69.30
68746;SHT31;66104;45.456;11.064;2023-04-01T01:57:48;10.75;69.24
68746;SHT31;66104;45.456;11.064;2023-04-01T02:00:26;10.71;69.31
68746;SHT31;66104;45.456;11.064;2023-04-01T02:03:05;10.71;69.26
68746;SHT31;66104;45.456;11.064;2023-04-01T02:05:43;10.73;69.15
68746;SHT31;66104;45.456;11.064;2023-04-01T02:08:22;10.74;69.19
68746;SHT31;66104;45.456;11.064;2023-04-01T02:11:07;10.74;69.10
68746;SHT31;66104;45.456;11.064;2023-04-01T02:13:50;10.74;69.08
68746;SHT31;66104;45.456;11.064;2023-04-01T02:16:34;10.73;69.10
68746;SHT31;66104;45.456;11.064;2023-04-01T02:19:17;10.69;69.07
68746;SHT31;66104;45.456;11.064;2023-04-01T02:22:01;10.64;69.14
68746;SHT31;66104;45.456;11.064;2023-04-01T02:24:39;10.62;69.14
68746;SHT31;66104;45.456;11.064;2023-04-01T02:27:18;10.59;69.05
68746;SHT31;66104;45.456;11.064;2023-04-01T02:29:56;10.52;69.19
68746;SHT31;66104;45.456;11.064;2023-04-01T02:32:34;10.46;69.53
68746;SHT31;66104;45.456;11.064;2023-04-01T02:35:14;10.46;69.55
68746;SHT31;66104;45.456;11.064;2023-04-01T02:37:52;10.45;69.33
68746;SHT31;66104;45.456;11.064;2023-04-01T02:40:28;10.45;69.31
68746;SHT31;66104;45.456;11.064;2023-04-01T02:43:18;10.49;69.19
68746;SHT31;66104;45.456;11.064;2023-04-01T02:45:56;10.48;69.10
68746;SHT31;66104;45.456;11.064;2023-04-01T02:48:33;10.47;69.20
68746;SHT31;66104;45.456;11.064;2023-04-01T02:51:09;10.47;69.21
68746;SHT31;66104;45.456;11.064;2023-04-01T02:53:46;10.48;69.07
68746;SHT31;66104;45.456;11.064;2023-04-01T02:56:22;10.45;68.97
68746;SHT31;66104;45.456;11.064;2023-04-01T02:58:59;10.43;68.98
68746;SHT31;66104;45.456;11.064;2023-04-01T03:01:36;10.40;68.91
68746;SHT31;66104;45.456;11.064;2023-04-01T03:04:13;10.36;68.99
68746;SHT31;66104;45.456;11.064;2023-04-01T03:06:51;10.25;69.24
68746;SHT31;66104;45.456;11.064;2023-04-01T03:09:28;10.16;69.48
68746;SHT31;66104;45.456;11.064;2023-04-01T03:12:05;10.13;69.72
68746;SHT31;66104;45.456;11.064;2023-04-01T03:14:48;10.11;69.82
68746;SHT31;66104;45.456;11.064;2023-04-01T03:17:38;10.10;70.08
68746;SHT31;66104;45.456;11.064;2023-04-01T03:20:16;10.09;70.04
68746;SHT31;66104;45.456;11.064;2023-04-01T03:22:52;10.05;70.08
68746;SHT31;66104;45.456;11.064;2023-04-01T03:25:30;10.00;70.25
68746;SHT31;66104;45.456;11.064;2023-04-01T03:28:07;9.99;70.20
68746;SHT31;66104;45.456;11.064;2023-04-01T03:30:45;9.98;70.15
68746;SHT31;66104;45.456;11.064;2023-04-01T03:33:22;9.99;70.10
68746;SHT31;66104;45.456;11.064;2023-04-01T03:35:58;10.04;70.05
68746;SHT31;66104;45.456;11.064;2023-04-01T03:38:35;10.07;70.00
68746;SHT31;66104;45.456;11.064;2023-04-01T03:41:13;10.12;69.95
68746;SHT31;66104;45.456;11.064;2023-04-01T03:43:51;10.13;69.79
68746;SHT31;66104;45.456;11.064;2023-04-01T03:46:29;10.11;69.81
68746;SHT31;66104;45.456;11.064;2023-04-01T03:49:07;10.10;69.80
68746;SHT31;66104;45.456;11.064;2023-04-01T03:51:44;10.08;69.88
68746;SHT31;66104;45.456;11.064;2023-04-01T03:54:20;10.07;69.95
68746;SHT31;66104;45.456;11.064;2023-04-01T03:56:59;10.06;69.98
68746;SHT31;66104;45.456;11.064;2023-04-01T03:59:37;10.08;69.84
68746;SHT31;66104;45.456;11.064;2023-04-01T04:02:13;10.07;69.88
68746;SHT31;66104;45.456;11.064;2023-04-01T04:04:49;10.06;69.69
68746;SHT31;66104;45.456;11.064;2023-04-01T04:07:27;10.06;69.70
68746;SHT31;66104;45.456;11.064;2023-04-01T04:10:09;10.08;69.58
68746;SHT31;66104;45.456;11.064;2023-04-01T04:12:45;10.09;69.50
68746;SHT31;66104;45.456;11.064;2023-04-01T04:15:23;10.11;69.47
68746;SHT31;66104;45.456;11.064;2023-04-01T04:18:00;10.12;69.30
68746;SHT31;66104;45.456;11.064;2023-04-01T04:20:37;10.11;69.14
68746;SHT31;66104;45.456;11.064;2023-04-01T04:23:20;10.06;69.04
68746;SHT31;66104;45.456;11.064;2023-04-01T04:25:58;9.94;68.87
68746;SHT31;66104;45.456;11.064;2023-04-01T04:28:37;9.74;68.92
68746;SHT31;66104;45.456;11.064;2023-04-01T04:31:19;9.51;69.87
68746;SHT31;66104;45.456;11.064;2023-04-01T04:33:58;9.31;70.94
68746;SHT31;66104;45.456;11.064;2023-04-01T04:36:36;9.29;71.24
68746;SHT31;66104;45.456;11.064;2023-04-01T04:39:12;9.32;71.35
68746;SHT31;66104;45.456;11.064;2023-04-01T04:41:50;9.34;71.31
68746;SHT31;66104;45.456;11.064;2023-04-01T04:44:30;9.40;71.23
68746;SHT31;66104;45.456;11.064;2023-04-01T04:47:07;9.44;71.52
68746;SHT31;66104;45.456;11.064;2023-04-01T04:49:44;9.50;71.27
68746;SHT31;66104;45.456;11.064;2023-04-01T04:52:21;9.54;70.97
68746;SHT31;66104;45.456;11.064;2023-04-01T04:54:58;9.56;70.72
68746;SHT31;66104;45.456;11.064;2023-04-01T04:57:38;9.57;70.57
68746;SHT31;66104;45.456;11.064;2023-04-01T05:00:15;9.53;70.61
68746;SHT31;66104;45.456;11.064;2023-04-01T05:02:58;9.51;70.70
68746;SHT31;66104;45.456;11.064;2023-04-01T05:05:35;9.50;70.78
68746;SHT31;66104;45.456;11.064;2023-04-01T05:08:18;9.48;70.80
68746;SHT31;66104;45.456;11.064;2023-04-01T05:10:56;9.44;70.89
68746;SHT31;66104;45.456;11.064;2023-04-01T05:13:33;9.38;70.98
68746;SHT31;66104;45.456;11.064;2023-04-01T05:16:10;9.37;71.21
68746;SHT31;66104;45.456;11.064;2023-04-01T05:18:49;9.37;71.38
68746;SHT31;66104;45.456;11.064;2023-04-01T05:21:26;9.36;71.40
68746;SHT31;66104;45.456;11.064;2023-04-01T05:24:06;9.37;71.32
68746;SHT31;66104;45.456;11.064;2023-04-01T05:26:43;9.42;71.07
68746;SHT31;66104;45.456;11.064;2023-04-01T05:29:21;9.67;70.43
68746;SHT31;66104;45.456;11.064;2023-04-01T05:32:04;10.33;68.72
68746;SHT31;66104;45.456;11.064;2023-04-01T05:34:41;10.53;67.73
68746;SHT31;66104;45.456;11.064;2023-04-01T05:37:21;10.45;67.51
68746;SHT31;66104;45.456;11.064;2023-04-01T05:39:58;10.35;67.51
68746;SHT31;66104;45.456;11.064;2023-04-01T05:42:43;10.31;67.72
68746;SHT31;66104;45.456;11.064;2023-04-01T05:45:19;10.36;67.54
68746;SHT31;66104;45.456;11.064;2023-04-01T05:48:14;10.39;67.13
68746;SHT31;66104;45.456;11.064;2023-04-01T05:50:51;10.37;67.18
68746;SHT31;66104;45.456;11.064;2023-04-01T05:53:29;10.31;67.35
68746;SHT31;66104;45.456;11.064;2023-04-01T05:56:07;10.31;67.43
68746;SHT31;66104;45.456;11.064;2023-04-01T05:58:50;10.34;67.38
68746;SHT31;66104;45.456;11.064;2023-04-01T06:01:26;10.45;67.58
68746;SHT31;66104;45.456;11.064;2023-04-01T06:04:04;10.61;67.47
68746;SHT31;66104;45.456;11.064;2023-04-01T06:06:45;10.78;67.34
68746;SHT31;66104;45.456;11.064;2023-04-01T06:09:23;10.87;67.23
68746;SHT31;66104;45.456;11.064;2023-04-01T06:25:07;10.77;67.69
68746;SHT31;66104;45.456;11.064;2023-04-01T06:31:35;10.98;67.74
68746;SHT31;66104;45.456;11.064;2023-04-01T06:41:20;11.51;67.50
68746;SHT31;66104;45.456;11.064;2023-04-01T06:44:25;11.68;67.45
68746;SHT31;66104;45.456;11.064;2023-04-01T06:47:38;11.73;67.60
68746;SHT31;66104;45.456;11.064;2023-04-01T06:50:43;11.84;67.72
68746;SHT31;66104;45.456;11.064;2023-04-01T06:54:01;12.00;67.68
68746;SHT31;66104;45.456;11.064;2023-04-01T06:57:22;12.17;66.99
68746;SHT31;66104;45.456;11.064;2023-04-01T07:00:11;12.27;66.43
68746;SHT31;66104;45.456;11.064;2023-04-01T07:03:01;12.37;66.32
68746;SHT31;66104;45.456;11.064;2023-04-01T07:06:13;12.49;66.30
68746;SHT31;66104;45.456;11.064;2023-04-01T07:09:06;12.59;66.02
68746;SHT31;66104;45.456;11.064;2023-04-01T07:12:15;12.71;65.17
68746;SHT31;66104;45.456;11.064;2023-04-01T07:15:23;12.82;65.01
68746;SHT31;66104;45.456;11.064;2023-04-01T07:18:09;12.89;65.18
68746;SHT31;66104;45.456;11.064;2023-04-01T07:20:54;13.02;65.03
68746;SHT31;66104;45.456;11.064;2023-04-01T07:23:33;13.15;64.69
68746;SHT31;66104;45.456;11.064;2023-04-01T07:26:30;13.28;64.95
68746;SHT31;66104;45.456;11.064;2023-04-01T07:29:15;13.40;65.40
68746;SHT31;66104;45.456;11.064;2023-04-01T07:34:55;13.60;65.02
68746;SHT31;66104;45.456;11.064;2023-04-01T07:37:48;13.65;64.65
68746;SHT31;66104;45.456;11.064;2023-04-01T07:40:45;13.76;64.49
68746;SHT31;66104;45.456;11.064;2023-04-01T07:43:37;13.85;64.67
68746;SHT31;66104;45.456;11.064;2023-04-01T07:46:33;13.98;65.00
68746;SHT31;66104;45.456;11.064;2023-04-01T07:49:34;14.10;64.97
68746;SHT31;66104;45.456;11.064;2023-04-01T07:52:23;14.15;64.66
68746;SHT31;66104;45.456;11.064;2023-04-01T07:55:14;14.21;64.85
68746;SHT31;66104;45.456;11.064;2023-04-01T07:58:00;14.27;64.90
68746;SHT31;66104;45.456;11.064;2023-04-01T08:00:51;14.33;64.85
68746;SHT31;66104;45.456;11.064;2023-04-01T08:03:42;14.40;65.05
68746;SHT31;66104;45.456;11.064;2023-04-01T08:06:47;14.46;65.25
68746;SHT31;66104;45.456;11.064;2023-04-01T08:09:35;14.50;65.45
68746;SHT31;66104;45.456;11.064;2023-04-01T08:12:51;14.56;65.87
68746;SHT31;66104;45.456;11.064;2023-04-01T08:16:10;14.64;65.91
68746;SHT31;66104;45.456;11.064;2023-04-01T08:18:58;14.71;65.91
68746;SHT31;66104;45.456;11.064;2023-04-01T08:21:50;14.75;65.54
68746;SHT31;66104;45.456;11.064;2023-04-01T08:24:35;14.77;65.42
68746;SHT31;66104;45.456;11.064;2023-04-01T08:27:23;14.83;65.30
68746;SHT31;66104;45.456;11.064;2023-04-01T08:30:15;14.89;65.41
68746;SHT31;66104;45.456;11.064;2023-04-01T08:32:55;14.96;65.38
68746;SHT31;66104;45.456;11.064;2023-04-01T08:35:39;14.97;65.08
68746;SHT31;66104;45.456;11.064;2023-04-01T08:38:23;14.94;65.15
68746;SHT31;66104;45.456;11.064;2023-04-01T08:41:11;14.95;65.00
68746;SHT31;66104;45.456;11.064;2023-04-01T08:47:48;14.99;65.03
68746;SHT31;66104;45.456;11.064;2023-04-01T08:54:22;15.17;64.76
68746;SHT31;66104;45.456;11.064;2023-04-01T09:01:24;15.23;64.08
68746;SHT31;66104;45.456;11.064;2023-04-01T09:08:00;15.32;63.24
68746;SHT31;66104;45.456;11.064;2023-04-01T09:10:55;15.35;63.63
68746;SHT31;66104;45.456;11.064;2023-04-01T09:14:08;15.45;63.43
68746;SHT31;66104;45.456;11.064;2023-04-01T09:24:32;15.77;62.61
68746;SHT31;66104;45.456;11.064;2023-04-01T09:27:56;15.87;61.84
68746;SHT31;66104;45.456;11.064;2023-04-01T09:34:19;15.97;60.96
68746;SHT31;66104;45.456;11.064;2023-04-01T09:37:16;16.03;60.74
68746;SHT31;66104;45.456;11.064;2023-04-01T09:40:08;16.09;61.04
68746;SHT31;66104;45.456;11.064;2023-04-01T09:49:29;16.34;59.51
68746;SHT31;66104;45.456;11.064;2023-04-01T09:52:37;16.40;58.43
68746;SHT31;66104;45.456;11.064;2023-04-01T09:55:34;16.37;57.34
68746;SHT31;66104;45.456;11.064;2023-04-01T10:16:46;16.72;56.65
68746;SHT31;66104;45.456;11.064;2023-04-01T10:19:59;16.84;55.29
68746;SHT31;66104;45.456;11.064;2023-04-01T10:23:02;16.93;55.57
68746;SHT31;66104;45.456;11.064;2023-04-01T10:26:26;17.08;55.42
68746;SHT31;66104;45.456;11.064;2023-04-01T10:36:53;17.47;53.79
68746;SHT31;66104;45.456;11.064;2023-04-01T10:39:42;17.52;53.43
68746;SHT31;66104;45.456;11.064;2023-04-01T10:43:25;17.46;52.93
68746;SHT31;66104;45.456;11.064;2023-04-01T10:49:46;17.63;52.58
68746;SHT31;66104;45.456;11.064;2023-04-01T10:56:56;17.94;52.17
68746;SHT31;66104;45.456;11.064;2023-04-01T11:11:31;18.27;50.32
68746;SHT31;66104;45.456;11.064;2023-04-01T11:14:52;18.38;49.38
68746;SHT31;66104;45.456;11.064;2023-04-01T11:21:56;18.56;48.87
68746;SHT31;66104;45.456;11.064;2023-04-01T11:25:02;18.48;48.71
68746;SHT31;66104;45.456;11.064;2023-04-01T11:31:52;18.72;47.88
68746;SHT31;66104;45.456;11.064;2023-04-01T11:37:57;19.01;46.99
68746;SHT31;66104;45.456;11.064;2023-04-01T11:41:40;19.13;45.11
68746;SHT31;66104;45.456;11.064;2023-04-01T11:44:53;19.17;44.94
68746;SHT31;66104;45.456;11.064;2023-04-01T11:51:01;19.33;44.73
68746;SHT31;66104;45.456;11.064;2023-04-01T11:54:03;19.35;44.60
68746;SHT31;66104;45.456;11.064;2023-04-01T11:56:58;19.34;44.71
68746;SHT31;66104;45.456;11.064;2023-04-01T12:03:08;19.43;43.21
68746;SHT31;66104;45.456;11.064;2023-04-01T12:06:05;19.46;43.35
68746;SHT31;66104;45.456;11.064;2023-04-01T12:08:53;19.54;43.77
68746;SHT31;66104;45.456;11.064;2023-04-01T12:11:42;19.64;43.42
68746;SHT31;66104;45.456;11.064;2023-04-01T12:14:30;19.70;42.52
68746;SHT31;66104;45.456;11.064;2023-04-01T12:17:21;19.63;42.37
68746;SHT31;66104;45.456;11.064;2023-04-01T12:20:21;19.59;42.75
68746;SHT31;66104;45.456;11.064;2023-04-01T12:23:18;19.61;42.90
68746;SHT31;66104;45.456;11.064;2023-04-01T12:26:38;19.67;42.77
68746;SHT31;66104;45.456;11.064;2023-04-01T12:29:44;19.68;41.23
68746;SHT31;66104;45.456;11.064;2023-04-01T12:32:53;19.62;40.82
68746;SHT31;66104;45.456;11.064;2023-04-01T12:35:48;19.63;41.53
68746;SHT31;66104;45.456;11.064;2023-04-01T12:38:39;19.78;41.00
68746;SHT31;66104;45.456;11.064;2023-04-01T12:41:39;20.01;38.27
68746;SHT31;66104;45.456;11.064;2023-04-01T12:51:03;20.56;35.53
68746;SHT31;66104;45.456;11.064;2023-04-01T13:01:23;20.82;35.01
68746;SHT31;66104;45.456;11.064;2023-04-01T13:07:51;20.95;34.37
68746;SHT31;66104;45.456;11.064;2023-04-01T13:10:52;21.00;33.84
68746;SHT31;66104;45.456;11.064;2023-04-01T13:13:52;20.98;33.03
68746;SHT31;66104;45.456;11.064;2023-04-01T13:16:59;20.91;33.74
68746;SHT31;66104;45.456;11.064;2023-04-01T13:19:47;20.98;34.36
68746;SHT31;66104;45.456;11.064;2023-04-01T13:22:39;21.10;34.37
68746;SHT31;66104;45.456;11.064;2023-04-01T13:25:31;21.04;32.75
68746;SHT31;66104;45.456;11.064;2023-04-01T13:28:30;20.83;29.25
68746;SHT31;66104;45.456;11.064;2023-04-01T13:31:24;20.75;27.95
68746;SHT31;66104;45.456;11.064;2023-04-01T13:37:35;20.70;27.53
68746;SHT31;66104;45.456;11.064;2023-04-01T13:40:38;20.67;28.37
68746;SHT31;66104;45.456;11.064;2023-04-01T13:43:32;20.70;28.85
68746;SHT31;66104;45.456;11.064;2023-04-01T13:46:20;20.82;29.66
68746;SHT31;66104;45.456;11.064;2023-04-01T13:49:21;20.96;28.57
68746;SHT31;66104;45.456;11.064;2023-04-01T13:55:51;21.11;27.98
68746;SHT31;66104;45.456;11.064;2023-04-01T14:01:59;21.08;28.13
68746;SHT31;66104;45.456;11.064;2023-04-01T14:05:15;21.03;28.89
68746;SHT31;66104;45.456;11.064;2023-04-01T14:08:25;21.04;29.37
68746;SHT31;66104;45.456;11.064;2023-04-01T14:11:16;21.04;29.39
68746;SHT31;66104;45.456;11.064;2023-04-01T14:14:02;21.09;29.17
68746;SHT31;66104;45.456;11.064;2023-04-01T14:17:04;21.14;29.75
68746;SHT31;66104;45.456;11.064;2023-04-01T14:20:04;21.25;29.92
68746;SHT31;66104;45.456;11.064;2023-04-01T14:23:02;21.34;29.61
68746;SHT31;66104;45.456;11.064;2023-04-01T14:29:32;21.26;29.96
68746;SHT31;66104;45.456;11.064;2023-04-01T14:32:27;21.35;29.99
68746;SHT31;66104;45.456;11.064;2023-04-01T14:38:22;21.19;30.01
68746;SHT31;66104;45.456;11.064;2023-04-01T14:44:21;20.93;30.24
68746;SHT31;66104;45.456;11.064;2023-04-01T14:47:26;20.83;30.57
68746;SHT31;66104;45.456;11.064;2023-04-01T14:50:21;20.73;30.64
68746;SHT31;66104;45.456;11.064;2023-04-01T14:53:10;20.65;30.99
68746;SHT31;66104;45.456;11.064;2023-04-01T14:56:00;20.56;31.26
68746;SHT31;66104;45.456;11.064;2023-04-01T14:58:43;20.49;30.96
68746;SHT31;66104;45.456;11.064;2023-04-01T15:04:26;20.37;30.79
68746;SHT31;66104;45.456;11.064;2023-04-01T15:07:39;20.39;31.15
68746;SHT31;66104;45.456;11.064;2023-04-01T15:10:51;20.51;30.74
68746;SHT31;66104;45.456;11.064;2023-04-01T15:14:04;20.64;30.60
68746;SHT31;66104;45.456;11.064;2023-04-01T15:17:15;20.75;30.21
68746;SHT31;66104;45.456;11.064;2023-04-01T15:23:23;20.93;29.85
68746;SHT31;66104;45.456;11.064;2023-04-01T15:26:22;20.99;30.04
68746;SHT31;66104;45.456;11.064;2023-04-01T15:29:26;20.98;29.91
68746;SHT31;66104;45.456;11.064;2023-04-01T15:32:43;20.91;29.74
68746;SHT31;66104;45.456;11.064;2023-04-01T15:35:40;20.81;29.00
68746;SHT31;66104;45.456;11.064;2023-04-01T15:38:30;20.71;28.85
68746;SHT31;66104;45.456;11.064;2023-04-01T15:41:19;20.62;28.63
68746;SHT31;66104;45.456;11.064;2023-04-01T15:44:24;20.58;29.25
68746;SHT31;66104;45.456;11.064;2023-04-01T15:47:31;20.58;29.33
68746;SHT31;66104;45.456;11.064;2023-04-01T15:56:53;20.38;29.57
68746;SHT31;66104;45.456;11.064;2023-04-01T16:03:08;20.28;28.75
68746;SHT31;66104;45.456;11.064;2023-04-01T16:09:27;20.22;29.44
68746;SHT31;66104;45.456;11.064;2023-04-01T16:12:34;20.22;29.72
68746;SHT31;66104;45.456;11.064;2023-04-01T16:15:32;20.25;29.44
68746;SHT31;66104;45.456;11.064;2023-04-01T16:18:26;20.28;29.78
68746;SHT31;66104;45.456;11.064;2023-04-01T16:21:35;20.30;29.43
68746;SHT31;66104;45.456;11.064;2023-04-01T16:24:24;20.30;29.19
68746;SHT31;66104;45.456;11.064;2023-04-01T16:27:12;20.32;29.51
68746;SHT31;66104;45.456;11.064;2023-04-01T16:29:58;20.34;28.70
68746;SHT31;66104;45.456;11.064;2023-04-01T16:33:00;20.32;29.21
68746;SHT31;66104;45.456;11.064;2023-04-01T16:35:46;20.28;29.09
68746;SHT31;66104;45.456;11.064;2023-04-01T16:38:35;20.27;28.78
68746;SHT31;66104;45.456;11.064;2023-04-01T16:41:24;20.25;28.67
68746;SHT31;66104;45.456;11.064;2023-04-01T16:44:13;20.23;28.40
68746;SHT31;66104;45.456;11.064;2023-04-01T16:46:54;20.22;28.35
68746;SHT31;66104;45.456;11.064;2023-04-01T16:49:39;20.22;28.52
68746;SHT31;66104;45.456;11.064;2023-04-01T16:52:33;20.20;28.67
68746;SHT31;66104;45.456;11.064;2023-04-01T16:55:23;20.20;28.58
68746;SHT31;66104;45.456;11.064;2023-04-01T16:58:20;20.17;28.53
68746;SHT31;66104;45.456;11.064;2023-04-01T17:01:06;20.16;28.64
68746;SHT31;66104;45.456;11.064;2023-04-01T17:03:57;20.12;29.35
68746;SHT31;66104;45.456;11.064;2023-04-01T17:06:45;20.08;29.83
68746;SHT31;66104;45.456;11.064;2023-04-01T17:09:35;20.04;30.20
68746;SHT31;66104;45.456;11.064;2023-04-01T17:12:50;19.96;30.61
68746;SHT31;66104;45.456;11.064;2023-04-01T17:15:42;19.90;30.72
68746;SHT31;66104;45.456;11.064;2023-04-01T17:18:34;19.83;30.86
68746;SHT31;66104;45.456;11.064;2023-04-01T17:21:22;19.75;30.92
68746;SHT31;66104;45.456;11.064;2023-04-01T17:24:33;19.66;30.81
68746;SHT31;66104;45.456;11.064;2023-04-01T17:27:36;19.53;30.90
68746;SHT31;66104;45.456;11.064;2023-04-01T17:30:25;19.41;30.96
68746;SHT31;66104;45.456;11.064;2023-04-01T17:33:13;19.27;30.99
68746;SHT31;66104;45.456;11.064;2023-04-01T17:36:18;19.13;31.31
68746;SHT31;66104;45.456;11.064;2023-04-01T17:39:18;19.01;31.92
68746;SHT31;66104;45.456;11.064;2023-04-01T17:42:13;18.92;32.37
68746;SHT31;66104;45.456;11.064;2023-04-01T17:45:04;18.84;32.83
68746;SHT31;66104;45.456;11.064;2023-04-01T17:48:00;18.78;33.22
68746;SHT31;66104;45.456;11.064;2023-04-01T17:50:56;18.69;33.53
68746;SHT31;66104;45.456;11.064;2023-04-01T17:53:50;18.60;33.99
68746;SHT31;66104;45.456;11.064;2023-04-01T17:56:38;18.53;34.19
68746;SHT31;66104;45.456;11.064;2023-04-01T17:59:34;18.48;34.46
68746;SHT31;66104;45.456;11.064;2023-04-01T18:02:21;18.41;34.67
68746;SHT31;66104;45.456;11.064;2023-04-01T18:05:14;18.33;34.70
68746;SHT31;66104;45.456;11.064;2023-04-01T18:11:15;18.09;35.20
68746;SHT31;66104;45.456;11.064;2023-04-01T18:17:44;17.87;35.73
68746;SHT31;66104;45.456;11.064;2023-04-01T18:20:40;17.77;35.90
68746;SHT31;66104;45.456;11.064;2023-04-01T18:23:35;17.69;35.84
68746;SHT31;66104;45.456;11.064;2023-04-01T18:26:31;17.58;36.20
68746;SHT31;66104;45.456;11.064;2023-04-01T18:29:13;17.50;36.25
68746;SHT31;66104;45.456;11.064;2023-04-01T18:32:10;17.39;36.39
68746;SHT31;66104;45.456;11.064;2023-04-01T18:35:09;17.30;36.54
68746;SHT31;66104;45.456;11.064;2023-04-01T18:37:57;17.24;36.71
68746;SHT31;66104;45.456;11.064;2023-04-01T18:40:46;17.17;37.00
68746;SHT31;66104;45.456;11.064;2023-04-01T18:43:32;17.09;37.16
68746;SHT31;66104;45.456;11.064;2023-04-01T18:46:26;17.03;37.39
68746;SHT31;66104;45.456;11.064;2023-04-01T18:49:15;16.95;37.61
68746;SHT31;66104;45.456;11.064;2023-04-01T18:51:58;16.86;37.79
68746;SHT31;66104;45.456;11.064;2023-04-01T18:54:45;16.79;38.05
68746;SHT31;66104;45.456;11.064;2023-04-01T18:57:55;16.74;38.38
68746;SHT31;66104;45.456;11.064;2023-04-01T19:00:51;16.70;38.53
68746;SHT31;66104;45.456;11.064;2023-04-01T19:03:45;16.64;38.80
68746;SHT31;66104;45.456;11.064;2023-04-01T19:06:42;16.59;39.08
68746;SHT31;66104;45.456;11.064;2023-04-01T19:09:26;16.59;39.06
68746;SHT31;66104;45.456;11.064;2023-04-01T19:15:24;16.52;39.16
68746;SHT31;66104;45.456;11.064;2023-04-01T19:21:37;16.46;39.14
68746;SHT31;66104;45.456;11.064;2023-04-01T19:27:40;16.40;38.86
68746;SHT31;66104;45.456;11.064;2023-04-01T19:36:35;16.34;38.76
68746;SHT31;66104;45.456;11.064;2023-04-01T19:39:26;16.35;38.79
68746;SHT31;66104;45.456;11.064;2023-04-01T19:42:21;16.36;38.78
68746;SHT31;66104;45.456;11.064;2023-04-01T19:45:14;16.41;38.62
68746;SHT31;66104;45.456;11.064;2023-04-01T19:48:12;16.44;38.56
68746;SHT31;66104;45.456;11.064;2023-04-01T19:51:13;16.48;38.47
68746;SHT31;66104;45.456;11.064;2023-04-01T19:54:04;16.50;38.60
68746;SHT31;66104;45.456;11.064;2023-04-01T19:57:00;16.48;39.35
68746;SHT31;66104;45.456;11.064;2023-04-01T19:59:52;16.43;39.89
68746;SHT31;66104;45.456;11.064;2023-04-01T20:05:43;16.38;40.51
68746;SHT31;66104;45.456;11.064;2023-04-01T20:08:40;16.37;40.61
68746;SHT31;66104;45.456;11.064;2023-04-01T20:11:34;16.35;40.53
68746;SHT31;66104;45.456;11.064;2023-04-01T20:14:29;16.33;40.80
68746;SHT31;66104;45.456;11.064;2023-04-01T20:17:17;16.25;41.07
68746;SHT31;66104;45.456;11.064;2023-04-01T20:19:59;16.16;41.57
68746;SHT31;66104;45.456;11.064;2023-04-01T20:22:55;16.12;41.50
68746;SHT31;66104;45.456;11.064;2023-04-01T20:26:01;16.07;42.10
68746;SHT31;66104;45.456;11.064;2023-04-01T20:31:50;16.01;42.60
68746;SHT31;66104;45.456;11.064;2023-04-01T20:34:45;15.98;42.77
68746;SHT31;66104;45.456;11.064;2023-04-01T20:37:42;15.98;42.75
68746;SHT31;66104;45.456;11.064;2023-04-01T20:40:28;15.97;42.80
68746;SHT31;66104;45.456;11.064;2023-04-01T20:46:35;15.93;44.55
68746;SHT31;66104;45.456;11.064;2023-04-01T20:49:25;15.89;49.31
68746;SHT31;66104;45.456;11.064;2023-04-01T20:52:19;15.91;52.74
68746;SHT31;66104;45.456;11.064;2023-04-01T20:55:25;15.99;55.10
68746;SHT31;66104;45.456;11.064;2023-04-01T20:58:27;16.07;55.92
68746;SHT31;66104;45.456;11.064;2023-04-01T21:01:15;16.16;55.56
68746;SHT31;66104;45.456;11.064;2023-04-01T21:04:10;16.21;55.26
68746;SHT31;66104;45.456;11.064;2023-04-01T21:07:13;16.23;55.08
68746;SHT31;66104;45.456;11.064;2023-04-01T21:10:16;16.24;55.18